Staples, Texas
Current Conditions -  °F | °C
As of 10:55 PM on Sunday 21 Dec 2014 (Local Time) from KHYI Reporting Station
Overcast Overcast  
Wind Chill: 54°   Ceiling: 2300
Heat Index: 54°   Visibility: 8mi
Dew Point: 52°   Wind: 9mph
Humidity: 94%   Direction: 210°SSW
Pressure: 29.86"   Gusts: NA
Location:  29.78°N, 97.84°W
Report Text: KHYI 220455Z 21008KT 8SM OVC023 12/11 A2986 RMK AO1
Loading
Personal Weather Stations






























Interactive Weather Map New forecast layout! Learn more

10-Day Weather Forecast

Advertisements
Track Severe Weather on mobile